sensor_id;sensor_type;location;lat;lon;timestamp;pressure;altitude;pressure_sealevel;temperature;humidity
71642;BME280;60657;50.122;14.468;2023-11-21T00:03:00;97591.36955933194;;;10.569542992294195;74.38071259632258
71642;BME280;60657;50.122;14.468;2023-11-21T00:06:15;97588.15143702427;;;10.449378194857708;74.58670939192798
71642;BME280;60657;50.122;14.468;2023-11-21T00:09:31;97592.4730899719;;;10.425345235370415;75.01586938277256
71642;BME280;60657;50.122;14.468;2023-11-21T00:12:47;97592.36343326535;;;10.460059510185395;74.76409552147707
71642;BME280;60657;50.122;14.468;2023-11-21T00:16:03;97594.01085619302;;;10.468070496681165;74.6725413900969
71642;BME280;60657;50.122;14.468;2023-11-21T00:19:20;97582.47921132487;;;10.393301289387352;74.90142671854734
71642;BME280;60657;50.122;14.468;2023-11-21T00:22:35;97586.65259598343;;;10.393301289387352;74.9948882276646
71642;BME280;60657;50.122;14.468;2023-11-21T00:25:51;97584.95021607615;;;10.420004577706571;75.04829480430304
71642;BME280;60657;50.122;14.468;2023-11-21T00:29:07;97592.4368791835;;;10.374608987563896;75.07881284809643
71642;BME280;60657;50.122;14.468;2023-11-21T00:32:23;97588.31820869049;;;10.345235370412759;75.16464484626536
71642;BME280;60657;50.122;14.468;2023-11-21T00:35:41;97587.42125465299;;;10.44670786602579;75.04066529335469
71642;BME280;60657;50.122;14.468;2023-11-21T00:38:57;97589.068632494;;;10.44670786602579;74.94529640650035
71642;BME280;60657;50.122;14.468;2023-11-21T00:42:12;97590.00182275087;;;10.36125734340429;75.33821622034027
71642;BME280;60657;50.122;14.468;2023-11-21T00:45:28;97599.83240893087;;;10.420004577706571;74.8785381857023
71642;BME280;60657;50.122;14.468;2023-11-21T00:48:44;97588.30001997914;;;10.390630960555427;75.04448004882887
71642;BME280;60657;50.122;14.468;2023-11-21T00:52:00;97593.24238218741;;;10.347905699244677;75.15701533531701
71642;BME280;60657;50.122;14.468;2023-11-21T00:55:18;97591.57660323719;;;10.393301289387352;75.24856946669719
71642;BME280;60657;50.122;14.468;2023-11-21T00:58:34;97590.01977330867;;;10.358587014572365;75.37254901960785
71642;BME280;60657;50.122;14.468;2023-11-21T01:01:50;97593.36828645543;;;10.321202410925459;75.44693675135424
71642;BME280;60657;50.122;14.468;2023-11-21T01:05:06;97595.9444570095;;;10.267795834287021;75.91424429694057
71642;BME280;60657;50.122;14.468;2023-11-21T01:08:22;97595.83970605179;;;10.350576028076603;75.81506065461204
71642;BME280;60657;50.122;14.468;2023-11-21T01:11:38;97601.64186676341;;;10.358587014572365;75.66819256885634
71642;BME280;60657;50.122;14.468;2023-11-21T01:14:54;97603.35940123926;;;10.31853208209354;75.81315327687496
71642;BME280;60657;50.122;14.468;2023-11-21T01:18:09;97613.3323517284;;;10.273136491950865;75.85511558709086
71642;BME280;60657;50.122;14.468;2023-11-21T01:21:25;97603.37664149825;;;10.25978484779126;75.91424429694057
71642;BME280;60657;50.122;14.468;2023-11-21T01:24:41;97601.76302082308;;;10.23308155947204;76.10498207064927
71642;BME280;60657;50.122;14.468;2023-11-21T01:27:57;97595.01589575752;;;10.350576028076603;75.83222705424582
71642;BME280;60657;50.122;14.468;2023-11-21T01:31:13;97601.7288319084;;;10.270466163118947;75.90661478599222
71642;BME280;60657;50.122;14.468;2023-11-21T01:34:28;97600.85303640681;;;10.299839780270084;75.80933852140078
71642;BME280;60657;50.122;14.468;2023-11-21T01:37:44;97607.54757420607;;;10.27580682078279;75.92568856336308
71642;BME280;60657;50.122;14.468;2023-11-21T01:41:00;97606.70660187038;;;10.281147478446634;75.86274509803921
71642;BME280;60657;50.122;14.468;2023-11-21T01:44:16;97609.16131108257;;;10.31853208209354;75.77500572213322
71642;BME280;60657;50.122;14.468;2023-11-21T01:47:33;97610.07010912975;;;10.21705958648051;76.02868696116579
71642;BME280;60657;50.122;14.468;2023-11-21T01:50:49;97619.25014956495;;;10.21705958648051;76.00198367284658
71642;BME280;60657;50.122;14.468;2023-11-21T01:54:06;97622.53022734063;;;10.219729915312428;76.09353780422676
71642;BME280;60657;50.122;14.468;2023-11-21T01:57:22;97620.10661166848;;;10.155642023346303;76.13550011444266
71642;BME280;60657;50.122;14.468;2023-11-21T02:00:38;97611.75148069543;;;10.23308155947204;75.82459754329747
71642;BME280;60657;50.122;14.468;2023-11-21T02:03:54;97614.3056409032;;;10.144960708018615;76.04394598306249
71642;BME280;60657;50.122;14.468;2023-11-21T02:07:10;97609.32879447233;;;10.171663996337834;76.32623788815137
71642;BME280;60657;50.122;14.468;2023-11-21T02:10:26;97615.88822222702;;;10.193026626993209;76.28046082246128
71642;BME280;60657;50.122;14.468;2023-11-21T02:13:41;97604.35195658442;;;10.099565117875947;76.4101625085832
71642;BME280;60657;50.122;14.468;2023-11-21T02:16:59;97617.66624528995;;;10.096894789044022;76.40444037537193
71642;BME280;60657;50.122;14.468;2023-11-21T02:20:15;97611.96013588397;;;9.960708018616003;76.61806668192568
71642;BME280;60657;50.122;14.468;2023-11-21T02:23:31;97608.66363262282;;;10.000762951094835;76.72487983520256
71642;BME280;60657;50.122;14.468;2023-11-21T02:26:47;97602.02425468953;;;9.97138933394369;76.65812161440452
71642;BME280;60657;50.122;14.468;2023-11-21T02:30:03;97606.22199288906;;;9.928664072632941;77.09872587167163
71642;BME280;60657;50.122;14.468;2023-11-21T02:33:20;97606.19129481737;;;9.976729991607534;76.94232089723049
71642;BME280;60657;50.122;14.468;2023-11-21T02:36:36;97611.13600440623;;;9.97138933394369;76.81643396658274
71642;BME280;60657;50.122;14.468;2023-11-21T02:39:52;97604.54308849263;;;9.952697032120241;76.98046845197223
71642;BME280;60657;50.122;14.468;2023-11-21T02:43:08;97598.68082669206;;;9.992751964599066;76.62951094834821
71642;BME280;60657;50.122;14.468;2023-11-21T02:46:23;97601.13696787089;;;10.040817883573666;76.63523308155948
71642;BME280;60657;50.122;14.468;2023-11-21T02:49:39;97611.13600440623;;;9.976729991607534;76.67719539177538
71642;BME280;60657;50.122;14.468;2023-11-21T02:52:55;97607.03080415659;;;9.934004730296785;76.81452658884565
71642;BME280;60657;50.122;14.468;2023-11-21T02:56:11;97606.22199288906;;;9.91264209964141;76.91752498664836
71642;BME280;60657;50.122;14.468;2023-11-21T02:59:26;97601.18451615845;;;9.947356374456398;76.82597085526818
71642;BME280;60657;50.122;14.468;2023-11-21T03:02:42;97600.36046932367;;;9.984740978103304;76.82787823300526
71642;BME280;60657;50.122;14.468;2023-11-21T03:05:59;97602.86392958758;;;9.992751964599066;76.65239948119326
71642;BME280;60657;50.122;14.468;2023-11-21T03:09:15;97601.9769353246;;;10.038147554741741;76.6600289921416
71642;BME280;60657;50.122;14.468;2023-11-21T03:12:30;97608.53721898427;;;10.075532158388647;76.19844357976653
71642;BME280;60657;50.122;14.468;2023-11-21T03:15:46;97605.32053044542;;;10.006103608758679;76.53604943923095
71642;BME280;60657;50.122;14.468;2023-11-21T03:19:02;97605.367189767;;;9.864576180666816;76.72487983520256
71642;BME280;60657;50.122;14.468;2023-11-21T03:22:18;97602.13168510474;;;9.867246509498742;76.866025787747
71642;BME280;60657;50.122;14.468;2023-11-21T03:25:34;97607.1509423188;;;9.832532234683754;77.10444800488288
71642;BME280;60657;50.122;14.468;2023-11-21T03:28:50;97601.26205946357;;;9.931334401464866;76.50934615091172
71642;BME280;60657;50.122;14.468;2023-11-21T03:32:06;97607.83951624541;;;9.976729991607534;76.33386739909972
71642;BME280;60657;50.122;14.468;2023-11-21T03:35:22;97612.87576986721;;;9.907301441977566;76.4101625085832
71642;BME280;60657;50.122;14.468;2023-11-21T03:38:38;97622.85539972944;;;9.891279468986035;76.56275272755016
71642;BME280;60657;50.122;14.468;2023-11-21T03:41:54;97622.76632745097;;;9.987411306935222;76.21751735713741
71642;BME280;60657;50.122;14.468;2023-11-21T03:45:09;97616.9967694303;;;9.920653086137179;76.27283131151293
71642;BME280;60657;50.122;14.468;2023-11-21T03:48:27;97622.85539972944;;;9.875257495994504;76.65049210345617
71642;BME280;60657;50.122;14.468;2023-11-21T03:51:43;97614.46342883987;;;9.939345387960628;76.5131609063859
71642;BME280;60657;50.122;14.468;2023-11-21T03:54:59;97618.71941341982;;;9.859235523002972;76.76874952315556
71642;BME280;60657;50.122;14.468;2023-11-21T03:58:15;97620.46839669826;;;9.78446631570916;76.74586099031052
71642;BME280;60657;50.122;14.468;2023-11-21T04:01:31;97622.96939467613;;;9.752422369726098;76.82406347753108
71642;BME280;60657;50.122;14.468;2023-11-21T04:04:46;97632.07922048899;;;9.760433356221867;77.13878080415046
71642;BME280;60657;50.122;14.468;2023-11-21T04:08:02;97632.02353521787;;;9.829861905851836;76.7325093461509
71642;BME280;60657;50.122;14.468;2023-11-21T04:11:18;97632.86198777339;;;9.779125658045317;76.83169298847943
71642;BME280;60657;50.122;14.468;2023-11-21T04:14:35;97635.39070784273;;;9.76577401388571;76.80498970016022
71642;BME280;60657;50.122;14.468;2023-11-21T04:17:51;97637.87776716691;;;9.739070725566492;76.89272907606622
71642;BME280;60657;50.122;14.468;2023-11-21T04:21:07;97642.0273811922;;;9.781795986877242;76.75539787899595
71642;BME280;60657;50.122;14.468;2023-11-21T04:24:23;97632.12009084056;;;9.704356450751504;76.84313725490196
71642;BME280;60657;50.122;14.468;2023-11-21T04:27:39;97634.64688134156;;;9.712367437247273;76.95185778591592
71642;BME280;60657;50.122;14.468;2023-11-21T04:30:55;97640.36482862446;;;9.779125658045317;76.80117494468604
71642;BME280;60657;50.122;14.468;2023-11-21T04:34:11;97640.30981003413;;;9.824521248187992;76.68482490272373
71642;BME280;60657;50.122;14.468;2023-11-21T04:37:27;97642.76920466765;;;9.885938811322191;76.40444037537193
71642;BME280;60657;50.122;14.468;2023-11-21T04:40:43;97642.83832375049;;;9.69901579308766;76.68291752498665
71642;BME280;60657;50.122;14.468;2023-11-21T04:43:58;97644.48733941774;;;9.779125658045317;76.82024872205692
71642;BME280;60657;50.122;14.468;2023-11-21T04:47:14;97659.46278929235;;;9.731059739070723;76.82787823300526
71642;BME280;60657;50.122;14.468;2023-11-21T04:50:30;97658.55902056897;;;9.83520256351568;76.88891432059205
71642;BME280;60657;50.122;14.468;2023-11-21T04:53:46;97646.08110327779;;;9.885938811322191;76.66765850308995
71642;BME280;60657;50.122;14.468;2023-11-21T04:57:02;97649.39304823478;;;9.853894865339129;76.68673228046082
71642;BME280;60657;50.122;14.468;2023-11-21T05:00:18;97650.2035690074;;;9.891279468986035;76.40062561989777
71642;BME280;60657;50.122;14.468;2023-11-21T05:03:33;97651.11078254734;;;9.805828946364535;76.5856412603952
71642;BME280;60657;50.122;14.468;2023-11-21T05:06:50;97648.59622913052;;;9.848554207675285;76.67338063630122
71642;BME280;60657;50.122;14.468;2023-11-21T05:10:06;97652.70503953876;;;9.883268482490273;76.60471503776608
71642;BME280;60657;50.122;14.468;2023-11-21T05:13:22;97659.34290705921;;;9.867246509498742;76.60471503776608
71642;BME280;60657;50.122;14.468;2023-11-21T05:16:38;97655.27396626832;;;9.789806973373004;76.5284199282826
71642;BME280;60657;50.122;14.468;2023-11-21T05:19:54;97653.6380217562;;;9.74975204089418;76.97474631876096
71642;BME280;60657;50.122;14.468;2023-11-21T05:23:10;97652.87838747827;;;9.691004806591899;77.28755626764324
71642;BME280;60657;50.122;14.468;2023-11-21T05:26:25;97654.59062098566;;;9.680323491264211;77.42298008697642
71642;BME280;60657;50.122;14.468;2023-11-21T05:29:43;97662.0005671487;;;9.64026855878538;77.10635538261998
71642;BME280;60657;50.122;14.468;2023-11-21T05:32:59;97658.71416203926;;;9.653620202944992;77.18837262531471
71642;BME280;60657;50.122;14.468;2023-11-21T05:36:15;97667.79875860648;;;9.65629053177691;77.03196765087358
71642;BME280;60657;50.122;14.468;2023-11-21T05:39:30;97676.98074208418;;;9.610894941634243;77.32188906691081
71642;BME280;60657;50.122;14.468;2023-11-21T05:42:46;97670.3462903759;;;9.64026855878538;77.3390554665446
71642;BME280;60657;50.122;14.468;2023-11-21T05:46:04;97680.33825531913;;;9.560158693827724;77.23796444647898
71642;BME280;60657;50.122;14.468;2023-11-21T05:49:20;97682.84693323943;;;9.538796063172349;77.3981841763943
71642;BME280;60657;50.122;14.468;2023-11-21T05:52:36;97680.34958525472;;;9.522774090180818;77.41153582055391
71642;BME280;60657;50.122;14.468;2023-11-21T05:55:52;97673.70449802723;;;9.562829022659649;77.41344319829099
71642;BME280;60657;50.122;14.468;2023-11-21T05:59:08;97674.50609064156;;;9.629587243457692;77.13496604867628
71642;BME280;60657;50.122;14.468;2023-11-21T06:02:26;97681.15178229245;;;9.613565270466161;77.21126115815976
71642;BME280;60657;50.122;14.468;2023-11-21T06:05:42;97678.64226601731;;;9.624246585793848;77.27038986800946
71642;BME280;60657;50.122;14.468;2023-11-21T06:08:58;97675.25897296285;;;9.666971847104598;76.87556267643244
71642;BME280;60657;50.122;14.468;2023-11-21T06:12:13;97679.40759247866;;;9.693675135423817;76.9709315632868
71642;BME280;60657;50.122;14.468;2023-11-21T06:15:29;97686.89151479627;;;9.632257572289618;76.83169298847943
71642;BME280;60657;50.122;14.468;2023-11-21T06:18:45;97681.05733103809;;;9.66430151827268;76.70389868009461
71642;BME280;60657;50.122;14.468;2023-11-21T06:22:01;97699.3474265041;;;9.608224612802317;76.88509956511787
71642;BME280;60657;50.122;14.468;2023-11-21T06:25:17;97696.8147223122;;;9.691004806591899;76.45593957427329
71642;BME280;60657;50.122;14.468;2023-11-21T06:28:33;97705.94804850037;;;9.685664148928055;76.46356908522164
71642;BME280;60657;50.122;14.468;2023-11-21T06:31:49;97701.7765623537;;;9.728389410238805;76.46738384069582
71642;BME280;60657;50.122;14.468;2023-11-21T06:35:06;97711.7909806506;;;9.613565270466161;76.57419699397269
71642;BME280;60657;50.122;14.468;2023-11-21T06:38:23;97710.10748450509;;;9.648279545281149;76.61234454871443
71642;BME280;60657;50.122;14.468;2023-11-21T06:41:39;97720.82326588615;;;9.74174105439841;76.39299610894942
71642;BME280;60657;50.122;14.468;2023-11-21T06:44:55;97725.75136945816;;;9.781795986877242;76.26710917830167
71642;BME280;60657;50.122;14.468;2023-11-21T06:48:11;97736.45547066072;;;9.880598153658347;75.91615167467765
71642;BME280;60657;50.122;14.468;2023-11-21T06:51:27;97729.0048971403;;;9.853894865339129;75.59952697032121
71642;BME280;60657;50.122;14.468;2023-11-21T06:54:43;97735.642095107;;;9.864576180666816;75.74830243381399
71642;BME280;60657;50.122;14.468;2023-11-21T06:57:59;97738.14124676974;;;9.837872892347598;75.57473105973907
71642;BME280;60657;50.122;14.468;2023-11-21T07:01:15;97731.48040467048;;;9.861905851834898;75.41260395208667
71642;BME280;60657;50.122;14.468;2023-11-21T07:04:31;97738.04530945468;;;9.928664072632941;75.12649729152362
71642;BME280;60657;50.122;14.468;2023-11-21T07:07:47;97730.5691636753;;;9.99809262226291;75.21423666742962
71642;BME280;60657;50.122;14.468;2023-11-21T07:11:04;97725.5548125334;;;10.035477225909823;75.09597924773023
71642;BME280;60657;50.122;14.468;2023-11-21T07:14:21;97738.7820115488;;;10.056839856565198;74.88235294117646
71642;BME280;60657;50.122;14.468;2023-11-21T07:17:37;97736.22766712669;;;10.158312352178228;74.87663080796521
71642;BME280;60657;50.122;14.468;2023-11-21T07:20:52;97733.75251813143;;;10.182345311665522;75.01968413824675
71642;BME280;60657;50.122;14.468;2023-11-21T07:24:08;97735.3482771337;;;10.182345311665522;74.81559472037843
71642;BME280;60657;50.122;14.468;2023-11-21T07:27:24;97738.72957813623;;;10.094224460212104;74.94338902876325
71642;BME280;60657;50.122;14.468;2023-11-21T07:30:41;97742.00314680481;;;10.144960708018615;75.04829480430304
71642;BME280;60657;50.122;14.468;2023-11-21T07:33:57;97743.80921382766;;;10.016784924086366;75.23903257801175
71642;BME280;60657;50.122;14.468;2023-11-21T07:37:13;97738.02047362515;;;10.032806897077897;75.34584573128862
71642;BME280;60657;50.122;14.468;2023-11-21T07:40:29;97747.80573527684;;;10.142290379186697;74.7602807660029
71642;BME280;60657;50.122;14.468;2023-11-21T07:43:45;97752.83560552528;;;10.182345311665522;74.98725871671625
71642;BME280;60657;50.122;14.468;2023-11-21T07:47:01;97741.89253912968;;;10.355916685740446;74.78316929884794
71642;BME280;60657;50.122;14.468;2023-11-21T07:50:17;97751.05193752571;;;10.299839780270084;74.24147402151522
71642;BME280;60657;50.122;14.468;2023-11-21T07:53:32;97753.52727058061;;;10.302510109102009;73.88097962920577
71642;BME280;60657;50.122;14.468;2023-11-21T07:56:48;97747.61010344267;;;10.420004577706571;73.73983367666132
71642;BME280;60657;50.122;14.468;2023-11-21T08:00:04;97761.79245242642;;;10.329213397421228;73.77798123140306
71642;BME280;60657;50.122;14.468;2023-11-21T08:03:21;97754.91532319233;;;10.59090562294957;73.36217288471809
71642;BME280;60657;50.122;14.468;2023-11-21T08:06:37;97755.70943109723;;;10.604257267109176;73.39650568398565
71642;BME280;60657;50.122;14.468;2023-11-21T08:09:53;97749.82462665807;;;10.687037460898758;73.50141145952544
71642;BME280;60657;50.122;14.468;2023-11-21T08:13:09;97752.16787930373;;;10.809872587167163;72.14908064393073
71642;BME280;60657;50.122;14.468;2023-11-21T08:16:25;97753.83422122111;;;10.815213244831007;71.63790341039139
71642;BME280;60657;50.122;14.468;2023-11-21T08:19:41;97763.03901950154;;;10.687037460898758;71.45479514763103
71642;BME280;60657;50.122;14.468;2023-11-21T08:22:56;97763.9901471044;;;10.596246280613414;71.82482642862593
71642;BME280;60657;50.122;14.468;2023-11-21T08:26:12;97776.4424076924;;;10.636301213092239;71.58640421149005
71642;BME280;60657;50.122;14.468;2023-11-21T08:29:31;97773.81170308616;;;10.7537956816968;71.09620813305867
71642;BME280;60657;50.122;14.468;2023-11-21T08:32:47;97763.76571356336;;;10.841916533150226;70.80056458381017
71642;BME280;60657;50.122;14.468;2023-11-21T08:36:06;97760.43286974252;;;10.844586861982144;70.67467765316243
71642;BME280;60657;50.122;14.468;2023-11-21T08:39:22;97769.43826554748;;;10.96742198825055;70.63271534294651
71642;BME280;60657;50.122;14.468;2023-11-21T08:42:38;97773.6308860646;;;10.956740672922862;71.30411230640117
71642;BME280;60657;50.122;14.468;2023-11-21T08:45:56;97764.59059445362;;;10.836575875486382;70.72426947432669
71642;BME280;60657;50.122;14.468;2023-11-21T08:49:12;97766.13889043519;;;10.930037384603644;70.44007019150072
71642;BME280;60657;50.122;14.468;2023-11-21T08:52:28;97777.0633569575;;;10.831235217822538;70.60410467689022
71642;BME280;60657;50.122;14.468;2023-11-21T08:55:44;97782.02965299749;;;10.860608834973675;70.50873579003586
71642;BME280;60657;50.122;14.468;2023-11-21T08:59:00;97801.24311321195;;;10.724422064545664;70.82345311665522
71642;BME280;60657;50.122;14.468;2023-11-21T09:02:15;97787.88530348301;;;10.809872587167163;70.9741359578851
71642;BME280;60657;50.122;14.468;2023-11-21T09:05:31;97789.50356733706;;;10.84725719081407;70.74143587396048
71642;BME280;60657;50.122;14.468;2023-11-21T09:08:47;97794.58026326486;;;10.735103379873351;70.8997482261387
71642;BME280;60657;50.122;14.468;2023-11-21T09:12:03;97800.32546854668;;;10.812542915999082;70.98558022430763
71642;BME280;60657;50.122;14.468;2023-11-21T09:15:19;97802.73763003437;;;10.900663767452507;70.98558022430763
71642;BME280;60657;50.122;14.468;2023-11-21T09:18:40;97800.22998959967;;;10.911345082780194;70.489662012665
71642;BME280;60657;50.122;14.468;2023-11-21T09:25:41;97807.65634506578;;;10.943389028763256;70.03952086671245
71642;BME280;60657;50.122;14.468;2023-11-21T09:28:57;97815.13161381918;;;10.9487296864271;69.51880674448768
71642;BME280;60657;50.122;14.468;2023-11-21T09:32:12;97811.89420308339;;;10.88197146562905;69.72671091783016
71642;BME280;60657;50.122;14.468;2023-11-21T09:35:28;97815.22652436372;;;10.8392462043183;69.7648584725719
71642;BME280;60657;50.122;14.468;2023-11-21T09:38:44;97812.60741719471;;;10.986114290074006;69.53406576638437
71642;BME280;60657;50.122;14.468;2023-11-21T09:42:03;97811.00551988362;;;10.956740672922862;69.45395590142672
71642;BME280;60657;50.122;14.468;2023-11-21T09:45:25;97831.84101217217;;;10.849927519645988;69.66186007476921
71642;BME280;60657;50.122;14.468;2023-11-21T09:48:42;97815.24204347703;;;10.860608834973675;69.12779430838484
71642;BME280;60657;50.122;14.468;2023-11-21T09:52:01;97828.49365623141;;;10.868619821469444;69.23079270618753
71642;BME280;60657;50.122;14.468;2023-11-21T09:55:17;97836.76303442464;;;10.914015411612112;68.5136186770428
71642;BME280;60657;50.122;14.468;2023-11-21T09:58:34;97829.17721850591;;;11.012817578393225;68.44686045624475
71642;BME280;60657;50.122;14.468;2023-11-21T10:01:50;97822.44363003437;;;11.10093842984665;67.84794384679942
71642;BME280;60657;50.122;14.468;2023-11-21T10:05:06;97828.33574332364;;;11.012817578393225;68.16647592889296
71642;BME280;60657;50.122;14.468;2023-11-21T10:08:22;97828.30313405182;;;11.098268101014725;67.91660944533456
71642;BME280;60657;50.122;14.468;2023-11-21T10:11:39;97823.1493842472;;;11.26382848859388;67.33867399099718
71642;BME280;60657;50.122;14.468;2023-11-21T10:14:56;97822.10982507688;;;11.440070191500723;66.94384679942016
71642;BME280;60657;50.122;14.468;2023-11-21T10:18:19;97825.29790704857;;;11.538872358281836;66.07980468451973
71642;BME280;60657;50.122;14.468;2023-11-21T10:21:36;97821.92171187258;;;11.557564660105285;65.5514610513466
71642;BME280;60657;50.122;14.468;2023-11-21T10:24:53;97819.36938126267;;;11.653696498054472;65.2863355458915
71642;BME280;60657;50.122;14.468;2023-11-21T10:28:09;97823.45449854528;;;11.685740444037535;65.12420843823911
71642;BME280;60657;50.122;14.468;2023-11-21T10:31:26;97825.1240332607;;;11.643015182726785;64.29449912260624
71642;BME280;60657;50.122;14.468;2023-11-21T10:34:42;97820.25258144365;;;11.504158083466848;64.76943617914091
71642;BME280;60657;50.122;14.468;2023-11-21T10:38:10;97822.12816485256;;;11.37331197070268;64.9925993743801
71642;BME280;60657;50.122;14.468;2023-11-21T10:41:26;97835.40230205086;;;11.405355916685743;64.71602960250247
71642;BME280;60657;50.122;14.468;2023-11-21T10:44:42;97822.09139958391;;;11.43472953383688;65.19668879224842
71642;BME280;60657;50.122;14.468;2023-11-21T10:47:57;97833.75204545294;;;11.400015259021899;65.70786602578775
71642;BME280;60657;50.122;14.468;2023-11-21T10:51:13;97835.43832837828;;;11.410696574349586;65.34737163347829
71642;BME280;60657;50.122;14.468;2023-11-21T10:54:29;97827.90350940346;;;11.469443808651867;65.33974212252994
71642;BME280;60657;50.122;14.468;2023-11-21T10:57:46;97828.76514076676;;;11.343938353551536;64.83810177767604
71642;BME280;60657;50.122;14.468;2023-11-21T11:01:06;97832.94495161566;;;11.383993286030368;65.53047989623865
71642;BME280;60657;50.122;14.468;2023-11-21T11:04:22;97821.97904622466;;;11.509498741130692;65.37979705500878
71642;BME280;60657;50.122;14.468;2023-11-21T11:07:43;97814.15934229486;;;11.693751430533304;64.32883192187381
71642;BME280;60657;50.122;14.468;2023-11-21T11:11:00;97815.51153229644;;;11.93675135423819;63.48577096208133
71642;BME280;60657;50.122;14.468;2023-11-21T11:14:15;97805.28065558139;;;12.129015030136571;62.88113221942473
71642;BME280;60657;50.122;14.468;2023-11-21T11:17:33;97802.54922567663;;;12.310597390707258;61.74052033264668
71642;BME280;60657;50.122;14.468;2023-11-21T11:20:49;97799.70790043587;;;12.51354238193332;61.008087281605256
71642;BME280;60657;50.122;14.468;2023-11-21T11:24:13;97799.26701466077;;;12.783245593957425;59.54131380178531
71642;BME280;60657;50.122;14.468;2023-11-21T11:27:51;97793.85802648534;;;12.940794995040818;59.16174563210498
71642;BME280;60657;50.122;14.468;2023-11-21T11:31:20;97786.41547823786;;;12.93011367971313;58.89852750438696
71642;BME280;60657;50.122;14.468;2023-11-21T11:34:54;97800.14422721644;;;12.721828030823225;59.371557183184564
71642;BME280;60657;50.122;14.468;2023-11-21T11:38:20;97789.24505819356;;;12.764553292133975;58.78408484016174
71642;BME280;60657;50.122;14.468;2023-11-21T11:41:37;97791.44106721682;;;12.449454489967195;59.545128557259474
71642;BME280;60657;50.122;14.468;2023-11-21T11:44:53;97800.80419746482;;;12.238498512245364;60.63805600061036
71642;BME280;60657;50.122;14.468;2023-11-21T11:48:11;97801.2269977029;;;12.030212863355459;60.191729610131986
71642;BME280;60657;50.122;14.468;2023-11-21T11:51:27;97808.1333664978;;;11.883344777599753;60.109712367437254
71642;BME280;60657;50.122;14.468;2023-11-21T11:54:42;97814.73039198402;;;11.90203707942321;60.20126649881743
71642;BME280;60657;50.122;14.468;2023-11-21T11:57:59;97815.68348816175;;;11.800564583810178;60.191729610131986